sensor_id;sensor_type;location;lat;lon;timestamp;P1;durP1;ratioP1;P2;durP2;ratioP2
31848;SDS011;18414;59.352;18.152;2023-01-26T00:00:47;4.57;;;3.50;;
31848;SDS011;18414;59.352;18.152;2023-01-26T00:03:13;4.27;;;3.30;;
31848;SDS011;18414;59.352;18.152;2023-01-26T00:05:38;4.70;;;3.10;;
31848;SDS011;18414;59.352;18.152;2023-01-26T00:08:04;4.83;;;3.43;;
31848;SDS011;18414;59.352;18.152;2023-01-26T00:10:30;4.33;;;3.30;;
31848;SDS011;18414;59.352;18.152;2023-01-26T00:12:55;4.53;;;3.00;;
31848;SDS011;18414;59.352;18.152;2023-01-26T00:15:20;4.27;;;3.43;;
31848;SDS011;18414;59.352;18.152;2023-01-26T00:17:46;5.27;;;3.40;;
31848;SDS011;18414;59.352;18.152;2023-01-26T00:20:11;4.67;;;3.40;;
31848;SDS011;18414;59.352;18.152;2023-01-26T00:22:37;4.00;;;3.20;;
31848;SDS011;18414;59.352;18.152;2023-01-26T00:25:02;4.67;;;3.50;;
31848;SDS011;18414;59.352;18.152;2023-01-26T00:27:28;5.10;;;3.47;;
31848;SDS011;18414;59.352;18.152;2023-01-26T00:29:53;4.60;;;3.63;;
31848;SDS011;18414;59.352;18.152;2023-01-26T00:32:18;4.20;;;3.30;;
31848;SDS011;18414;59.352;18.152;2023-01-26T00:34:44;4.37;;;3.43;;
31848;SDS011;18414;59.352;18.152;2023-01-26T00:37:09;5.53;;;3.83;;
31848;SDS011;18414;59.352;18.152;2023-01-26T00:39:34;4.57;;;3.63;;
31848;SDS011;18414;59.352;18.152;2023-01-26T00:42:00;4.20;;;3.57;;
31848;SDS011;18414;59.352;18.152;2023-01-26T00:44:33;4.57;;;3.40;;
31848;SDS011;18414;59.352;18.152;2023-01-26T00:46:59;4.30;;;3.50;;
31848;SDS011;18414;59.352;18.152;2023-01-26T00:49:24;3.73;;;3.17;;
31848;SDS011;18414;59.352;18.152;2023-01-26T00:51:50;4.97;;;3.53;;
31848;SDS011;18414;59.352;18.152;2023-01-26T00:54:15;5.17;;;3.63;;
31848;SDS011;18414;59.352;18.152;2023-01-26T00:56:41;5.43;;;3.50;;
31848;SDS011;18414;59.352;18.152;2023-01-26T00:59:06;5.17;;;3.70;;
31848;SDS011;18414;59.352;18.152;2023-01-26T01:01:32;5.63;;;3.80;;
31848;SDS011;18414;59.352;18.152;2023-01-26T01:03:58;5.60;;;3.93;;
31848;SDS011;18414;59.352;18.152;2023-01-26T01:06:23;5.60;;;4.07;;
31848;SDS011;18414;59.352;18.152;2023-01-26T01:08:49;5.70;;;3.53;;
31848;SDS011;18414;59.352;18.152;2023-01-26T01:11:14;4.90;;;3.73;;
31848;SDS011;18414;59.352;18.152;2023-01-26T01:13:40;5.40;;;3.80;;
31848;SDS011;18414;59.352;18.152;2023-01-26T01:16:06;4.83;;;3.70;;
31848;SDS011;18414;59.352;18.152;2023-01-26T01:18:32;7.33;;;4.40;;
31848;SDS011;18414;59.352;18.152;2023-01-26T01:20:59;5.43;;;4.20;;
31848;SDS011;18414;59.352;18.152;2023-01-26T01:23:26;5.60;;;3.90;;
31848;SDS011;18414;59.352;18.152;2023-01-26T01:25:56;5.40;;;3.90;;
31848;SDS011;18414;59.352;18.152;2023-01-26T01:28:22;7.40;;;4.00;;
31848;SDS011;18414;59.352;18.152;2023-01-26T01:30:47;5.70;;;3.93;;
31848;SDS011;18414;59.352;18.152;2023-01-26T01:33:13;6.43;;;4.03;;
31848;SDS011;18414;59.352;18.152;2023-01-26T01:35:38;4.37;;;3.70;;
31848;SDS011;18414;59.352;18.152;2023-01-26T01:38:03;7.20;;;3.97;;
31848;SDS011;18414;59.352;18.152;2023-01-26T01:40:29;5.17;;;3.70;;
31848;SDS011;18414;59.352;18.152;2023-01-26T01:42:54;5.63;;;4.13;;
31848;SDS011;18414;59.352;18.152;2023-01-26T01:47:58;9.73;;;4.47;;
31848;SDS011;18414;59.352;18.152;2023-01-26T01:50:24;5.57;;;4.40;;
31848;SDS011;18414;59.352;18.152;2023-01-26T01:52:50;6.60;;;4.30;;
31848;SDS011;18414;59.352;18.152;2023-01-26T01:55:17;7.50;;;4.60;;
31848;SDS011;18414;59.352;18.152;2023-01-26T01:57:48;6.73;;;4.50;;
31848;SDS011;18414;59.352;18.152;2023-01-26T02:00:21;5.20;;;4.00;;
31848;SDS011;18414;59.352;18.152;2023-01-26T02:02:49;6.60;;;4.40;;
31848;SDS011;18414;59.352;18.152;2023-01-26T02:05:55;5.10;;;3.63;;
31848;SDS011;18414;59.352;18.152;2023-01-26T02:08:29;3.17;;;2.47;;
31848;SDS011;18414;59.352;18.152;2023-01-26T02:10:57;4.77;;;3.10;;
31848;SDS011;18414;59.352;18.152;2023-01-26T02:13:24;2.40;;;2.10;;
31848;SDS011;18414;59.352;18.152;2023-01-26T02:15:50;4.03;;;2.67;;
31848;SDS011;18414;59.352;18.152;2023-01-26T02:18:16;2.33;;;2.00;;
31848;SDS011;18414;59.352;18.152;2023-01-26T02:20:46;4.27;;;2.50;;
31848;SDS011;18414;59.352;18.152;2023-01-26T02:23:19;5.80;;;2.60;;
31848;SDS011;18414;59.352;18.152;2023-01-26T02:28:19;3.13;;;2.73;;
31848;SDS011;18414;59.352;18.152;2023-01-26T02:30:46;5.30;;;3.07;;
31848;SDS011;18414;59.352;18.152;2023-01-26T02:33:45;4.83;;;2.67;;
31848;SDS011;18414;59.352;18.152;2023-01-26T02:36:04;6.57;;;2.23;;
31848;SDS011;18414;59.352;18.152;2023-01-26T02:38:40;2.97;;;2.40;;
31848;SDS011;18414;59.352;18.152;2023-01-26T02:41:08;3.63;;;1.93;;
31848;SDS011;18414;59.352;18.152;2023-01-26T02:43:35;2.40;;;2.17;;
31848;SDS011;18414;59.352;18.152;2023-01-26T02:46:01;4.17;;;2.27;;
31848;SDS011;18414;59.352;18.152;2023-01-26T02:48:26;2.40;;;1.77;;
31848;SDS011;18414;59.352;18.152;2023-01-26T02:51:10;2.73;;;2.37;;
31848;SDS011;18414;59.352;18.152;2023-01-26T02:53:35;2.27;;;1.93;;
31848;SDS011;18414;59.352;18.152;2023-01-26T02:56:01;3.70;;;3.10;;
31848;SDS011;18414;59.352;18.152;2023-01-26T02:58:26;2.37;;;2.17;;
31848;SDS011;18414;59.352;18.152;2023-01-26T03:00:52;2.57;;;1.97;;
31848;SDS011;18414;59.352;18.152;2023-01-26T03:03:18;2.67;;;2.30;;
31848;SDS011;18414;59.352;18.152;2023-01-26T03:05:47;2.87;;;2.40;;
31848;SDS011;18414;59.352;18.152;2023-01-26T03:08:13;4.60;;;1.83;;
31848;SDS011;18414;59.352;18.152;2023-01-26T03:10:39;1.93;;;1.73;;
31848;SDS011;18414;59.352;18.152;2023-01-26T03:13:04;2.40;;;1.90;;
31848;SDS011;18414;59.352;18.152;2023-01-26T03:15:29;1.37;;;1.17;;
31848;SDS011;18414;59.352;18.152;2023-01-26T03:18:11;2.80;;;2.13;;
31848;SDS011;18414;59.352;18.152;2023-01-26T03:21:03;2.33;;;1.90;;
31848;SDS011;18414;59.352;18.152;2023-01-26T03:23:50;2.87;;;2.00;;
31848;SDS011;18414;59.352;18.152;2023-01-26T03:26:34;4.50;;;2.27;;
31848;SDS011;18414;59.352;18.152;2023-01-26T03:29:18;6.73;;;2.70;;
31848;SDS011;18414;59.352;18.152;2023-01-26T03:31:44;2.17;;;1.80;;
31848;SDS011;18414;59.352;18.152;2023-01-26T03:34:10;4.20;;;2.00;;
31848;SDS011;18414;59.352;18.152;2023-01-26T03:36:35;2.13;;;1.87;;
31848;SDS011;18414;59.352;18.152;2023-01-26T03:39:02;2.43;;;1.90;;
31848;SDS011;18414;59.352;18.152;2023-01-26T03:41:28;3.97;;;2.93;;
31848;SDS011;18414;59.352;18.152;2023-01-26T03:44:11;2.17;;;1.77;;
31848;SDS011;18414;59.352;18.152;2023-01-26T03:46:55;4.63;;;2.63;;
31848;SDS011;18414;59.352;18.152;2023-01-26T03:49:40;5.07;;;1.40;;
31848;SDS011;18414;59.352;18.152;2023-01-26T03:52:24;3.30;;;2.70;;
31848;SDS011;18414;59.352;18.152;2023-01-26T03:55:07;2.30;;;1.97;;
31848;SDS011;18414;59.352;18.152;2023-01-26T03:57:52;2.90;;;2.10;;
31848;SDS011;18414;59.352;18.152;2023-01-26T04:00:17;3.10;;;2.63;;
31848;SDS011;18414;59.352;18.152;2023-01-26T04:02:45;2.83;;;2.20;;
31848;SDS011;18414;59.352;18.152;2023-01-26T04:05:29;5.93;;;3.83;;
31848;SDS011;18414;59.352;18.152;2023-01-26T04:08:13;2.67;;;2.00;;
31848;SDS011;18414;59.352;18.152;2023-01-26T04:10:45;5.33;;;3.17;;
31848;SDS011;18414;59.352;18.152;2023-01-26T04:13:10;1.93;;;1.67;;
31848;SDS011;18414;59.352;18.152;2023-01-26T04:15:54;5.40;;;3.47;;
31848;SDS011;18414;59.352;18.152;2023-01-26T04:18:40;4.33;;;2.73;;
31848;SDS011;18414;59.352;18.152;2023-01-26T04:21:23;2.93;;;2.00;;
31848;SDS011;18414;59.352;18.152;2023-01-26T04:23:57;4.67;;;3.50;;
31848;SDS011;18414;59.352;18.152;2023-01-26T04:26:23;5.17;;;3.97;;
31848;SDS011;18414;59.352;18.152;2023-01-26T04:28:50;4.67;;;2.90;;
31848;SDS011;18414;59.352;18.152;2023-01-26T04:31:15;3.13;;;2.33;;
31848;SDS011;18414;59.352;18.152;2023-01-26T04:33:41;3.40;;;2.40;;
31848;SDS011;18414;59.352;18.152;2023-01-26T04:36:07;2.97;;;2.27;;
31848;SDS011;18414;59.352;18.152;2023-01-26T04:38:37;4.03;;;3.10;;
31848;SDS011;18414;59.352;18.152;2023-01-26T04:41:02;5.37;;;3.67;;
31848;SDS011;18414;59.352;18.152;2023-01-26T04:43:28;2.07;;;1.63;;
31848;SDS011;18414;59.352;18.152;2023-01-26T04:45:57;2.87;;;2.00;;
31848;SDS011;18414;59.352;18.152;2023-01-26T04:48:23;5.73;;;4.20;;
31848;SDS011;18414;59.352;18.152;2023-01-26T04:50:55;4.93;;;3.63;;
31848;SDS011;18414;59.352;18.152;2023-01-26T04:53:21;2.47;;;2.23;;
31848;SDS011;18414;59.352;18.152;2023-01-26T04:55:47;4.73;;;3.17;;
31848;SDS011;18414;59.352;18.152;2023-01-26T04:58:12;3.03;;;2.13;;
31848;SDS011;18414;59.352;18.152;2023-01-26T05:00:37;4.30;;;2.90;;
31848;SDS011;18414;59.352;18.152;2023-01-26T05:03:03;4.53;;;3.80;;
31848;SDS011;18414;59.352;18.152;2023-01-26T05:05:28;3.60;;;2.73;;
31848;SDS011;18414;59.352;18.152;2023-01-26T05:07:53;4.77;;;3.27;;
31848;SDS011;18414;59.352;18.152;2023-01-26T05:10:19;4.97;;;3.60;;
31848;SDS011;18414;59.352;18.152;2023-01-26T05:12:44;6.83;;;4.50;;
31848;SDS011;18414;59.352;18.152;2023-01-26T05:15:09;5.53;;;4.30;;
31848;SDS011;18414;59.352;18.152;2023-01-26T05:17:35;7.97;;;4.93;;
31848;SDS011;18414;59.352;18.152;2023-01-26T05:20:00;5.77;;;4.50;;
31848;SDS011;18414;59.352;18.152;2023-01-26T05:22:26;6.37;;;4.80;;
31848;SDS011;18414;59.352;18.152;2023-01-26T05:24:52;5.93;;;4.70;;
31848;SDS011;18414;59.352;18.152;2023-01-26T05:27:17;6.10;;;4.70;;
31848;SDS011;18414;59.352;18.152;2023-01-26T05:29:45;6.03;;;4.60;;
31848;SDS011;18414;59.352;18.152;2023-01-26T05:32:10;7.70;;;5.27;;
31848;SDS011;18414;59.352;18.152;2023-01-26T05:34:36;7.00;;;4.50;;
31848;SDS011;18414;59.352;18.152;2023-01-26T05:37:01;7.23;;;5.20;;
31848;SDS011;18414;59.352;18.152;2023-01-26T05:39:26;6.77;;;5.27;;
31848;SDS011;18414;59.352;18.152;2023-01-26T05:41:52;7.93;;;5.10;;
31848;SDS011;18414;59.352;18.152;2023-01-26T05:44:19;6.17;;;4.70;;
31848;SDS011;18414;59.352;18.152;2023-01-26T05:46:45;5.80;;;4.57;;
31848;SDS011;18414;59.352;18.152;2023-01-26T05:49:10;6.00;;;4.60;;
31848;SDS011;18414;59.352;18.152;2023-01-26T05:51:36;7.07;;;4.80;;
31848;SDS011;18414;59.352;18.152;2023-01-26T05:54:01;5.80;;;4.53;;
31848;SDS011;18414;59.352;18.152;2023-01-26T05:56:27;6.37;;;4.57;;
31848;SDS011;18414;59.352;18.152;2023-01-26T05:58:52;5.33;;;4.20;;
31848;SDS011;18414;59.352;18.152;2023-01-26T06:01:18;5.90;;;4.40;;
31848;SDS011;18414;59.352;18.152;2023-01-26T06:03:43;6.03;;;4.63;;
31848;SDS011;18414;59.352;18.152;2023-01-26T06:06:08;5.83;;;4.47;;
31848;SDS011;18414;59.352;18.152;2023-01-26T06:08:34;5.43;;;4.03;;
31848;SDS011;18414;59.352;18.152;2023-01-26T06:11:00;5.07;;;3.80;;
31848;SDS011;18414;59.352;18.152;2023-01-26T06:13:25;5.30;;;4.10;;
31848;SDS011;18414;59.352;18.152;2023-01-26T06:15:50;5.40;;;4.07;;
31848;SDS011;18414;59.352;18.152;2023-01-26T06:18:16;5.27;;;3.93;;
31848;SDS011;18414;59.352;18.152;2023-01-26T06:20:41;5.23;;;3.47;;
31848;SDS011;18414;59.352;18.152;2023-01-26T06:23:07;5.23;;;4.10;;
31848;SDS011;18414;59.352;18.152;2023-01-26T06:25:36;4.50;;;3.73;;
31848;SDS011;18414;59.352;18.152;2023-01-26T06:28:21;4.97;;;3.80;;
31848;SDS011;18414;59.352;18.152;2023-01-26T06:30:46;6.50;;;3.63;;
31848;SDS011;18414;59.352;18.152;2023-01-26T06:33:12;6.47;;;4.40;;
31848;SDS011;18414;59.352;18.152;2023-01-26T06:35:37;4.50;;;3.73;;
31848;SDS011;18414;59.352;18.152;2023-01-26T06:38:03;5.87;;;3.87;;
31848;SDS011;18414;59.352;18.152;2023-01-26T06:40:29;4.97;;;4.03;;
31848;SDS011;18414;59.352;18.152;2023-01-26T06:42:54;6.37;;;3.50;;
31848;SDS011;18414;59.352;18.152;2023-01-26T06:45:20;4.50;;;3.63;;
31848;SDS011;18414;59.352;18.152;2023-01-26T06:47:45;5.00;;;3.67;;
31848;SDS011;18414;59.352;18.152;2023-01-26T06:50:12;4.80;;;3.33;;
31848;SDS011;18414;59.352;18.152;2023-01-26T06:52:40;5.13;;;3.60;;
31848;SDS011;18414;59.352;18.152;2023-01-26T06:55:17;6.43;;;5.00;;
31848;SDS011;18414;59.352;18.152;2023-01-26T06:57:52;6.28;;;4.57;;
31848;SDS011;18414;59.352;18.152;2023-01-26T07:00:17;5.70;;;4.03;;
31848;SDS011;18414;59.352;18.152;2023-01-26T07:02:43;5.10;;;3.90;;
31848;SDS011;18414;59.352;18.152;2023-01-26T07:05:08;4.73;;;3.50;;
31848;SDS011;18414;59.352;18.152;2023-01-26T07:07:34;5.17;;;3.50;;
31848;SDS011;18414;59.352;18.152;2023-01-26T07:09:59;4.87;;;3.53;;
31848;SDS011;18414;59.352;18.152;2023-01-26T07:12:25;5.27;;;3.57;;
31848;SDS011;18414;59.352;18.152;2023-01-26T07:14:50;5.63;;;3.60;;
31848;SDS011;18414;59.352;18.152;2023-01-26T07:17:16;8.47;;;3.93;;
31848;SDS011;18414;59.352;18.152;2023-01-26T07:19:41;10.37;;;5.70;;
31848;SDS011;18414;59.352;18.152;2023-01-26T07:22:09;8.67;;;5.17;;
31848;SDS011;18414;59.352;18.152;2023-01-26T07:24:35;7.33;;;3.67;;
31848;SDS011;18414;59.352;18.152;2023-01-26T07:27:00;7.03;;;3.47;;
31848;SDS011;18414;59.352;18.152;2023-01-26T07:29:25;4.80;;;2.87;;
31848;SDS011;18414;59.352;18.152;2023-01-26T07:31:51;4.50;;;3.07;;
31848;SDS011;18414;59.352;18.152;2023-01-26T07:34:17;4.73;;;2.83;;
31848;SDS011;18414;59.352;18.152;2023-01-26T07:36:43;3.67;;;2.50;;
31848;SDS011;18414;59.352;18.152;2023-01-26T07:39:09;5.40;;;2.70;;
31848;SDS011;18414;59.352;18.152;2023-01-26T07:41:35;3.43;;;2.13;;
31848;SDS011;18414;59.352;18.152;2023-01-26T07:44:00;4.40;;;2.50;;
31848;SDS011;18414;59.352;18.152;2023-01-26T07:46:26;2.90;;;2.07;;
31848;SDS011;18414;59.352;18.152;2023-01-26T07:48:51;3.00;;;2.17;;
31848;SDS011;18414;59.352;18.152;2023-01-26T07:51:16;3.87;;;1.90;;
31848;SDS011;18414;59.352;18.152;2023-01-26T07:53:41;3.53;;;1.90;;
31848;SDS011;18414;59.352;18.152;2023-01-26T07:56:12;2.17;;;1.60;;
31848;SDS011;18414;59.352;18.152;2023-01-26T07:58:38;2.53;;;1.77;;
31848;SDS011;18414;59.352;18.152;2023-01-26T08:01:11;3.07;;;1.63;;
31848;SDS011;18414;59.352;18.152;2023-01-26T08:03:37;1.70;;;1.40;;
31848;SDS011;18414;59.352;18.152;2023-01-26T08:06:03;1.50;;;1.40;;
31848;SDS011;18414;59.352;18.152;2023-01-26T08:08:29;1.47;;;1.07;;
31848;SDS011;18414;59.352;18.152;2023-01-26T08:10:55;1.67;;;1.20;;
31848;SDS011;18414;59.352;18.152;2023-01-26T08:13:21;1.30;;;1.17;;
31848;SDS011;18414;59.352;18.152;2023-01-26T08:15:46;0.90;;;0.83;;
31848;SDS011;18414;59.352;18.152;2023-01-26T08:18:12;2.70;;;1.30;;
31848;SDS011;18414;59.352;18.152;2023-01-26T08:20:38;2.20;;;1.00;;
31848;SDS011;18414;59.352;18.152;2023-01-26T08:23:03;1.93;;;0.90;;
31848;SDS011;18414;59.352;18.152;2023-01-26T08:25:29;0.87;;;0.70;;
31848;SDS011;18414;59.352;18.152;2023-01-26T08:27:56;0.70;;;0.70;;
31848;SDS011;18414;59.352;18.152;2023-01-26T08:30:22;1.60;;;0.80;;
31848;SDS011;18414;59.352;18.152;2023-01-26T08:32:49;1.10;;;0.80;;
31848;SDS011;18414;59.352;18.152;2023-01-26T08:35:16;0.73;;;0.73;;
31848;SDS011;18414;59.352;18.152;2023-01-26T08:37:41;0.53;;;0.53;;
31848;SDS011;18414;59.352;18.152;2023-01-26T08:40:07;1.07;;;0.60;;
31848;SDS011;18414;59.352;18.152;2023-01-26T08:42:35;1.00;;;0.77;;
31848;SDS011;18414;59.352;18.152;2023-01-26T08:45:00;0.80;;;0.70;;
31848;SDS011;18414;59.352;18.152;2023-01-26T08:47:26;1.47;;;0.80;;
31848;SDS011;18414;59.352;18.152;2023-01-26T08:49:52;0.70;;;0.60;;
31848;SDS011;18414;59.352;18.152;2023-01-26T08:52:17;1.03;;;0.70;;
31848;SDS011;18414;59.352;18.152;2023-01-26T08:54:43;0.50;;;0.50;;
31848;SDS011;18414;59.352;18.152;2023-01-26T08:57:08;0.50;;;0.50;;
31848;SDS011;18414;59.352;18.152;2023-01-26T08:59:34;1.63;;;0.70;;
31848;SDS011;18414;59.352;18.152;2023-01-26T09:01:59;0.93;;;0.70;;
31848;SDS011;18414;59.352;18.152;2023-01-26T09:04:25;0.83;;;0.50;;
31848;SDS011;18414;59.352;18.152;2023-01-26T09:06:51;0.73;;;0.60;;
31848;SDS011;18414;59.352;18.152;2023-01-26T09:09:16;0.73;;;0.73;;
31848;SDS011;18414;59.352;18.152;2023-01-26T09:11:42;0.73;;;0.60;;
31848;SDS011;18414;59.352;18.152;2023-01-26T09:14:07;1.80;;;0.90;;
31848;SDS011;18414;59.352;18.152;2023-01-26T09:16:32;0.70;;;0.60;;
31848;SDS011;18414;59.352;18.152;2023-01-26T09:18:58;2.03;;;0.73;;
31848;SDS011;18414;59.352;18.152;2023-01-26T09:21:24;1.30;;;0.70;;
31848;SDS011;18414;59.352;18.152;2023-01-26T09:23:49;0.50;;;0.50;;
31848;SDS011;18414;59.352;18.152;2023-01-26T09:26:15;1.43;;;0.60;;
31848;SDS011;18414;59.352;18.152;2023-01-26T09:28:40;1.53;;;0.70;;
31848;SDS011;18414;59.352;18.152;2023-01-26T09:31:07;0.67;;;0.60;;
31848;SDS011;18414;59.352;18.152;2023-01-26T09:33:34;0.60;;;0.60;;
31848;SDS011;18414;59.352;18.152;2023-01-26T09:36:04;0.60;;;0.57;;
31848;SDS011;18414;59.352;18.152;2023-01-26T09:38:31;1.17;;;0.50;;
31848;SDS011;18414;59.352;18.152;2023-01-26T09:41:01;1.13;;;0.70;;
31848;SDS011;18414;59.352;18.152;2023-01-26T09:43:43;0.57;;;0.57;;
31848;SDS011;18414;59.352;18.152;2023-01-26T09:48:43;0.60;;;0.60;;
31848;SDS011;18414;59.352;18.152;2023-01-26T09:51:28;0.40;;;0.40;;
31848;SDS011;18414;59.352;18.152;2023-01-26T09:53:57;2.13;;;0.60;;
31848;SDS011;18414;59.352;18.152;2023-01-26T09:56:25;1.13;;;0.50;;
31848;SDS011;18414;59.352;18.152;2023-01-26T09:59:18;0.70;;;0.70;;
31848;SDS011;18414;59.352;18.152;2023-01-26T10:02:00;1.43;;;0.50;;
31848;SDS011;18414;59.352;18.152;2023-01-26T10:07:52;0.60;;;0.60;;
31848;SDS011;18414;59.352;18.152;2023-01-26T10:10:29;1.30;;;0.70;;
31848;SDS011;18414;59.352;18.152;2023-01-26T10:12:58;1.60;;;0.80;;
31848;SDS011;18414;59.352;18.152;2023-01-26T10:15:30;2.23;;;0.60;;
31848;SDS011;18414;59.352;18.152;2023-01-26T10:18:01;1.37;;;0.77;;
31848;SDS011;18414;59.352;18.152;2023-01-26T10:20:31;0.70;;;0.70;;
31848;SDS011;18414;59.352;18.152;2023-01-26T10:23:00;0.43;;;0.43;;
31848;SDS011;18414;59.352;18.152;2023-01-26T10:25:31;1.93;;;0.70;;
31848;SDS011;18414;59.352;18.152;2023-01-26T10:27:59;1.80;;;0.70;;
31848;SDS011;18414;59.352;18.152;2023-01-26T10:30:26;1.70;;;0.67;;
31848;SDS011;18414;59.352;18.152;2023-01-26T10:32:52;1.47;;;0.80;;
31848;SDS011;18414;59.352;18.152;2023-01-26T10:35:19;0.70;;;0.60;;
31848;SDS011;18414;59.352;18.152;2023-01-26T10:37:46;1.67;;;0.60;;
31848;SDS011;18414;59.352;18.152;2023-01-26T10:40:12;1.50;;;0.50;;
31848;SDS011;18414;59.352;18.152;2023-01-26T10:42:38;2.50;;;0.70;;
31848;SDS011;18414;59.352;18.152;2023-01-26T10:45:22;2.30;;;0.70;;
31848;SDS011;18414;59.352;18.152;2023-01-26T10:48:13;0.90;;;0.67;;
31848;SDS011;18414;59.352;18.152;2023-01-26T10:50:40;1.03;;;0.63;;
31848;SDS011;18414;59.352;18.152;2023-01-26T10:53:05;1.73;;;0.60;;
31848;SDS011;18414;59.352;18.152;2023-01-26T10:55:31;1.00;;;0.50;;
31848;SDS011;18414;59.352;18.152;2023-01-26T10:57:57;0.98;;;0.60;;
31848;SDS011;18414;59.352;18.152;2023-01-26T11:00:30;1.07;;;0.50;;
31848;SDS011;18414;59.352;18.152;2023-01-26T11:03:04;2.07;;;0.70;;
31848;SDS011;18414;59.352;18.152;2023-01-26T11:05:40;1.60;;;0.50;;
31848;SDS011;18414;59.352;18.152;2023-01-26T11:10:58;0.75;;;0.60;;
31848;SDS011;18414;59.352;18.152;2023-01-26T11:13:24;0.50;;;0.50;;
31848;SDS011;18414;59.352;18.152;2023-01-26T11:15:58;1.50;;;0.70;;
31848;SDS011;18414;59.352;18.152;2023-01-26T11:18:31;2.10;;;0.70;;
31848;SDS011;18414;59.352;18.152;2023-01-26T11:24:02;1.03;;;0.63;;
31848;SDS011;18414;59.352;18.152;2023-01-26T11:32:25;3.17;;;0.60;;
31848;SDS011;18414;59.352;18.152;2023-01-26T11:40:29;0.40;;;0.40;;
31848;SDS011;18414;59.352;18.152;2023-01-26T11:43:07;2.05;;;0.57;;
31848;SDS011;18414;59.352;18.152;2023-01-26T11:46:19;4.23;;;0.80;;
31848;SDS011;18414;59.352;18.152;2023-01-26T11:52:11;2.43;;;0.77;;
31848;SDS011;18414;59.352;18.152;2023-01-26T11:57:38;1.13;;;0.50;;
31848;SDS011;18414;59.352;18.152;2023-01-26T12:02:58;1.27;;;0.60;;
31848;SDS011;18414;59.352;18.152;2023-01-26T12:08:19;3.20;;;0.70;;
31848;SDS011;18414;59.352;18.152;2023-01-26T12:10:47;2.47;;;1.07;;
31848;SDS011;18414;59.352;18.152;2023-01-26T12:19:11;1.37;;;0.60;;
31848;SDS011;18414;59.352;18.152;2023-01-26T12:21:42;1.87;;;0.73;;
31848;SDS011;18414;59.352;18.152;2023-01-26T12:24:11;1.13;;;0.60;;
31848;SDS011;18414;59.352;18.152;2023-01-26T12:26:41;3.20;;;0.80;;
31848;SDS011;18414;59.352;18.152;2023-01-26T12:29:18;2.20;;;0.80;;
31848;SDS011;18414;59.352;18.152;2023-01-26T12:34:29;3.37;;;0.70;;
31848;SDS011;18414;59.352;18.152;2023-01-26T12:39:34;2.77;;;0.80;;
31848;SDS011;18414;59.352;18.152;2023-01-26T12:42:11;1.70;;;0.70;;
31848;SDS011;18414;59.352;18.152;2023-01-26T12:44:49;2.53;;;0.83;;
31848;SDS011;18414;59.352;18.152;2023-01-26T12:47:27;1.00;;;0.70;;
31848;SDS011;18414;59.352;18.152;2023-01-26T12:50:03;1.93;;;0.70;;
31848;SDS011;18414;59.352;18.152;2023-01-26T12:55:22;2.97;;;0.60;;
31848;SDS011;18414;59.352;18.152;2023-01-26T12:57:59;1.73;;;0.70;;
31848;SDS011;18414;59.352;18.152;2023-01-26T13:02:56;3.57;;;0.80;;
31848;SDS011;18414;59.352;18.152;2023-01-26T13:05:31;1.90;;;0.80;;
31848;SDS011;18414;59.352;18.152;2023-01-26T13:08:08;0.83;;;0.60;;
31848;SDS011;18414;59.352;18.152;2023-01-26T13:10:55;1.83;;;0.70;;
31848;SDS011;18414;59.352;18.152;2023-01-26T13:13:27;0.53;;;0.53;;
31848;SDS011;18414;59.352;18.152;2023-01-26T13:18:52;0.67;;;0.53;;
31848;SDS011;18414;59.352;18.152;2023-01-26T13:26:44;0.87;;;0.50;;
31848;SDS011;18414;59.352;18.152;2023-01-26T13:31:48;0.70;;;0.50;;
31848;SDS011;18414;59.352;18.152;2023-01-26T13:34:13;1.43;;;0.70;;
31848;SDS011;18414;59.352;18.152;2023-01-26T13:36:40;1.52;;;0.70;;
31848;SDS011;18414;59.352;18.152;2023-01-26T13:39:11;1.57;;;0.70;;
31848;SDS011;18414;59.352;18.152;2023-01-26T13:41:43;2.37;;;1.10;;
31848;SDS011;18414;59.352;18.152;2023-01-26T13:44:13;1.87;;;0.73;;
31848;SDS011;18414;59.352;18.152;2023-01-26T13:46:42;1.87;;;0.60;;
31848;SDS011;18414;59.352;18.152;2023-01-26T13:49:24;1.47;;;0.70;;
31848;SDS011;18414;59.352;18.152;2023-01-26T13:51:51;1.67;;;0.57;;
31848;SDS011;18414;59.352;18.152;2023-01-26T13:54:16;2.80;;;1.00;;
31848;SDS011;18414;59.352;18.152;2023-01-26T13:56:58;1.53;;;0.67;;
31848;SDS011;18414;59.352;18.152;2023-01-26T13:59:30;3.20;;;0.73;;
31848;SDS011;18414;59.352;18.152;2023-01-26T14:01:57;2.60;;;1.30;;
31848;SDS011;18414;59.352;18.152;2023-01-26T14:04:24;1.30;;;0.60;;
31848;SDS011;18414;59.352;18.152;2023-01-26T14:06:55;0.60;;;0.60;;
31848;SDS011;18414;59.352;18.152;2023-01-26T14:09:25;1.67;;;0.60;;
31848;SDS011;18414;59.352;18.152;2023-01-26T14:11:54;3.57;;;1.10;;
31848;SDS011;18414;59.352;18.152;2023-01-26T14:14:24;2.63;;;0.93;;
31848;SDS011;18414;59.352;18.152;2023-01-26T14:16:51;2.08;;;0.90;;
31848;SDS011;18414;59.352;18.152;2023-01-26T14:19:19;3.00;;;0.70;;
31848;SDS011;18414;59.352;18.152;2023-01-26T14:24:12;2.03;;;1.00;;
31848;SDS011;18414;59.352;18.152;2023-01-26T14:26:38;1.33;;;0.80;;
31848;SDS011;18414;59.352;18.152;2023-01-26T14:29:09;2.40;;;1.07;;
31848;SDS011;18414;59.352;18.152;2023-01-26T14:31:35;2.03;;;0.60;;
31848;SDS011;18414;59.352;18.152;2023-01-26T14:34:01;1.27;;;0.67;;
31848;SDS011;18414;59.352;18.152;2023-01-26T14:36:33;0.77;;;0.70;;
31848;SDS011;18414;59.352;18.152;2023-01-26T14:39:03;3.38;;;0.73;;
31848;SDS011;18414;59.352;18.152;2023-01-26T14:41:39;1.97;;;0.80;;
31848;SDS011;18414;59.352;18.152;2023-01-26T14:44:07;2.80;;;0.80;;
31848;SDS011;18414;59.352;18.152;2023-01-26T14:46:49;2.50;;;0.80;;
31848;SDS011;18414;59.352;18.152;2023-01-26T14:49:16;3.03;;;0.70;;
31848;SDS011;18414;59.352;18.152;2023-01-26T14:52:11;1.20;;;0.70;;
31848;SDS011;18414;59.352;18.152;2023-01-26T14:54:41;1.87;;;0.67;;
31848;SDS011;18414;59.352;18.152;2023-01-26T14:57:07;1.20;;;0.70;;
31848;SDS011;18414;59.352;18.152;2023-01-26T14:59:37;1.65;;;0.80;;
31848;SDS011;18414;59.352;18.152;2023-01-26T15:02:14;1.93;;;0.80;;
31848;SDS011;18414;59.352;18.152;2023-01-26T15:04:42;3.47;;;0.80;;
31848;SDS011;18414;59.352;18.152;2023-01-26T15:09:58;2.87;;;0.73;;
31848;SDS011;18414;59.352;18.152;2023-01-26T15:12:24;1.93;;;0.83;;
31848;SDS011;18414;59.352;18.152;2023-01-26T15:14:50;2.17;;;0.83;;
31848;SDS011;18414;59.352;18.152;2023-01-26T15:17:26;3.87;;;1.10;;
31848;SDS011;18414;59.352;18.152;2023-01-26T15:19:55;3.73;;;0.80;;
31848;SDS011;18414;59.352;18.152;2023-01-26T15:22:22;3.25;;;1.10;;
31848;SDS011;18414;59.352;18.152;2023-01-26T15:25:01;1.07;;;0.60;;
31848;SDS011;18414;59.352;18.152;2023-01-26T15:27:56;4.00;;;0.87;;
31848;SDS011;18414;59.352;18.152;2023-01-26T15:30:26;4.60;;;1.10;;
31848;SDS011;18414;59.352;18.152;2023-01-26T15:32:54;1.63;;;0.73;;
31848;SDS011;18414;59.352;18.152;2023-01-26T15:35:23;1.50;;;0.80;;
31848;SDS011;18414;59.352;18.152;2023-01-26T15:40:26;3.43;;;0.70;;
31848;SDS011;18414;59.352;18.152;2023-01-26T15:43:03;0.73;;;0.60;;
31848;SDS011;18414;59.352;18.152;2023-01-26T15:45:52;1.27;;;0.80;;
31848;SDS011;18414;59.352;18.152;2023-01-26T15:48:19;1.30;;;0.77;;
31848;SDS011;18414;59.352;18.152;2023-01-26T15:50:45;2.17;;;1.10;;
31848;SDS011;18414;59.352;18.152;2023-01-26T15:53:15;3.57;;;1.10;;
31848;SDS011;18414;59.352;18.152;2023-01-26T15:55:44;3.27;;;0.90;;
31848;SDS011;18414;59.352;18.152;2023-01-26T15:58:10;2.40;;;0.90;;
31848;SDS011;18414;59.352;18.152;2023-01-26T16:00:36;4.63;;;0.83;;